Time;durP1;ratioP1;P1;durP2;ratioP2;P2;SDS_P1;SDS_P2;PMS_P1;PMS_P2;Temp;Humidity;BMP_temperature;BMP_pressure;BME280_temperature;BME280_humidity;BME280_pressure;Samples;Min_cycle;Max_cycle;Signal;HPM_P1;HPM_P2
2021/04/29 00:01:06;;;;;;;9.48;4.47;;;;;;;;;;6241158;22;20256;-90
2021/04/29 00:04:11;;;;;;;7.80;4.37;;;;;;;;;;6241863;23;20197;-90
2021/04/29 00:07:15;;;;;;;11.37;4.20;;;;;;;;;;6240254;23;20179;-88
2021/04/29 00:10:22;;;;;;;8.95;4.28;;;;;;;;;;6238042;23;20198;-91
2021/04/29 00:13:27;;;;;;;14.07;4.40;;;;;;;;;;6238881;23;20222;-91
2021/04/29 00:16:31;;;;;;;7.43;3.90;;;;;;;;;;6238737;22;20154;-90
2021/04/29 00:19:37;;;;;;;12.98;4.18;;;;;;;;;;6239152;23;20170;-89
2021/04/29 00:22:41;;;;;;;11.47;4.50;;;;;;;;;;6238764;23;20171;-88
2021/04/29 00:25:46;;;;;;;7.35;3.85;;;;;;;;;;6240131;23;20221;-90
2021/04/29 00:28:52;;;;;;;14.07;4.10;;;;;;;;;;6239789;23;20169;-90
2021/04/29 00:31:57;;;;;;;8.68;4.60;;;;;;;;;;6239577;23;20181;-90
2021/04/29 00:35:02;;;;;;;6.40;4.30;;;;;;;;;;6240222;22;20211;-90
2021/04/29 00:38:07;;;;;;;11.60;4.20;;;;;;;;;;6238067;23;20170;-89
2021/04/29 00:41:12;;;;;;;8.03;4.50;;;;;;;;;;6239387;22;20218;-91
2021/04/29 00:44:17;;;;;;;7.13;4.50;;;;;;;;;;6239368;22;20166;-90
2021/04/29 00:47:21;;;;;;;10.43;4.47;;;;;;;;;;6240051;23;20182;-91
2021/04/29 00:50:26;;;;;;;9.13;5.00;;;;;;;;;;6240719;23;20153;-92
2021/04/29 00:53:35;;;;;;;9.13;4.77;;;;;;;;;;6240298;23;20179;-89
2021/04/29 00:56:40;;;;;;;8.60;4.67;;;;;;;;;;6240497;23;20198;-89
2021/04/29 00:59:44;;;;;;;10.00;4.40;;;;;;;;;;6240242;23;20186;-90
2021/04/29 01:02:51;;;;;;;7.73;4.23;;;;;;;;;;6228564;23;20571;-92
2021/04/29 01:05:59;;;;;;;9.70;4.10;;;;;;;;;;6228186;23;20186;-89
2021/04/29 01:09:07;;;;;;;8.23;4.47;;;;;;;;;;6227977;23;20168;-89
2021/04/29 01:12:13;;;;;;;9.30;4.10;;;;;;;;;;6229263;23;20172;-90
2021/04/29 01:15:18;;;;;;;8.37;4.30;;;;;;;;;;6230606;23;20670;-90
2021/04/29 01:18:24;;;;;;;8.60;4.20;;;;;;;;;;6229303;23;20215;-90
2021/04/29 01:21:30;;;;;;;10.67;4.80;;;;;;;;;;6229159;23;20175;-89
2021/04/29 01:24:41;;;;;;;8.70;4.13;;;;;;;;;;6228365;22;20163;-90
2021/04/29 01:27:46;;;;;;;11.00;4.27;;;;;;;;;;6228558;23;20226;-91
2021/04/29 01:30:51;;;;;;;7.80;4.07;;;;;;;;;;6227784;23;20253;-90
2021/04/29 01:33:55;;;;;;;6.87;4.07;;;;;;;;;;6227605;23;20183;-90
2021/04/29 01:37:00;;;;;;;11.23;4.50;;;;;;;;;;6227699;23;20170;-90
2021/04/29 01:40:08;;;;;;;10.53;4.60;;;;;;;;;;6228914;23;20186;-90
2021/04/29 01:43:13;;;;;;;11.10;4.40;;;;;;;;;;6228582;23;20170;-90
2021/04/29 01:46:18;;;;;;;12.57;5.27;;;;;;;;;;6229829;23;20167;-91
2021/04/29 01:49:22;;;;;;;8.13;4.23;;;;;;;;;;6229130;22;20191;-91
2021/04/29 01:52:27;;;;;;;8.33;4.80;;;;;;;;;;6228098;23;20649;-91
2021/04/29 01:55:31;;;;;;;10.67;4.97;;;;;;;;;;6227649;23;20183;-91
2021/04/29 01:58:38;;;;;;;13.53;4.93;;;;;;;;;;6228264;23;20195;-90
2021/04/29 02:01:43;;;;;;;13.10;4.50;;;;;;;;;;6241039;23;20209;-91
2021/04/29 02:04:47;;;;;;;9.67;4.60;;;;;;;;;;6242308;22;20146;-91
2021/04/29 02:07:52;;;;;;;13.27;5.30;;;;;;;;;;6240955;23;20178;-90
2021/04/29 02:10:56;;;;;;;11.13;5.10;;;;;;;;;;6241975;23;20238;-92
2021/04/29 02:14:02;;;;;;;12.70;6.57;;;;;;;;;;6242058;23;20174;-92
2021/04/29 02:17:10;;;;;;;8.13;5.00;;;;;;;;;;6239980;23;20670;-90
2021/04/29 02:20:16;;;;;;;8.43;4.60;;;;;;;;;;6240797;23;20162;-91
2021/04/29 02:23:22;;;;;;;8.53;4.97;;;;;;;;;;6239130;23;20167;-91
2021/04/29 02:26:26;;;;;;;16.30;5.30;;;;;;;;;;6240411;23;20181;-91
2021/04/29 02:29:33;;;;;;;11.23;5.00;;;;;;;;;;6241557;23;20173;-90
2021/04/29 02:32:37;;;;;;;8.73;4.63;;;;;;;;;;6240794;23;20171;-88
2021/04/29 02:35:46;;;;;;;15.13;5.63;;;;;;;;;;6240948;23;20227;-89
2021/04/29 02:38:53;;;;;;;8.63;4.67;;;;;;;;;;6241943;23;20225;-92
2021/04/29 02:41:58;;;;;;;15.37;5.87;;;;;;;;;;6240612;23;20227;-91
2021/04/29 02:45:04;;;;;;;16.50;5.87;;;;;;;;;;6239826;23;20169;-91
2021/04/29 02:48:10;;;;;;;11.83;4.83;;;;;;;;;;6239430;23;20170;-89
2021/04/29 02:51:14;;;;;;;9.93;4.93;;;;;;;;;;6240727;23;20231;-90
2021/04/29 02:54:20;;;;;;;10.70;4.87;;;;;;;;;;6240780;23;20218;-89
2021/04/29 02:57:25;;;;;;;11.93;4.70;;;;;;;;;;6240413;23;20158;-90
2021/04/29 03:00:31;;;;;;;11.83;5.10;;;;;;;;;;6240857;23;20182;-91
2021/04/29 03:03:35;;;;;;;10.40;4.93;;;;;;;;;;6241332;22;20178;-90
2021/04/29 03:06:40;;;;;;;13.60;4.93;;;;;;;;;;6240396;23;20198;-90
2021/04/29 03:09:44;;;;;;;10.70;5.10;;;;;;;;;;6240910;23;20213;-91
2021/04/29 03:12:50;;;;;;;11.33;5.33;;;;;;;;;;6239310;22;20170;-89
2021/04/29 03:15:55;;;;;;;9.47;5.37;;;;;;;;;;6240299;23;20171;-90
2021/04/29 03:19:00;;;;;;;9.63;5.00;;;;;;;;;;6238471;23;20676;-89
2021/04/29 03:22:04;;;;;;;13.17;4.63;;;;;;;;;;6237985;23;20198;-91
2021/04/29 03:25:10;;;;;;;10.23;5.40;;;;;;;;;;6257220;23;20243;-90
2021/04/29 03:28:14;;;;;;;13.33;5.77;;;;;;;;;;6239102;23;20219;-90
2021/04/29 03:31:20;;;;;;;11.53;5.93;;;;;;;;;;6239574;23;20174;-88
2021/04/29 03:34:25;;;;;;;10.40;5.73;;;;;;;;;;6240622;23;20213;-90
2021/04/29 03:37:30;;;;;;;10.83;5.27;;;;;;;;;;6240262;23;20193;-89
2021/04/29 03:40:34;;;;;;;13.27;6.30;;;;;;;;;;6238372;23;20693;-91
2021/04/29 03:43:39;;;;;;;14.43;5.90;;;;;;;;;;6240005;23;20290;-89
2021/04/29 03:46:45;;;;;;;15.77;6.57;;;;;;;;;;6239523;23;20533;-87
2021/04/29 03:49:49;;;;;;;11.70;5.47;;;;;;;;;;6240514;23;20210;-89
2021/04/29 03:52:54;;;;;;;12.63;6.30;;;;;;;;;;6239173;23;20239;-90
2021/04/29 03:55:58;;;;;;;15.83;6.83;;;;;;;;;;6238793;23;20171;-91
2021/04/29 03:59:02;;;;;;;15.60;6.73;;;;;;;;;;6239161;23;20166;-90
2021/04/29 04:02:07;;;;;;;10.87;6.70;;;;;;;;;;6227219;23;20207;-89
2021/04/29 04:05:13;;;;;;;12.40;6.60;;;;;;;;;;6228191;23;20233;-89
2021/04/29 04:08:17;;;;;;;13.00;7.33;;;;;;;;;;6226896;23;20191;-91
2021/04/29 04:11:57;;;;;;;15.27;7.50;;;;;;;;;;6226845;23;20631;-91
2021/04/29 04:15:02;;;;;;;15.10;7.90;;;;;;;;;;6225695;22;20210;-88
2021/04/29 04:18:08;;;;;;;16.50;7.73;;;;;;;;;;6227482;23;20170;-91
2021/04/29 04:21:12;;;;;;;14.60;7.23;;;;;;;;;;6226795;23;20179;-91
2021/04/29 04:24:17;;;;;;;15.10;8.07;;;;;;;;;;6226643;23;20171;-89
2021/04/29 04:27:21;;;;;;;20.10;7.13;;;;;;;;;;6227482;23;20174;-89
2021/04/29 04:30:26;;;;;;;18.80;7.77;;;;;;;;;;6227442;22;20614;-91
2021/04/29 04:33:32;;;;;;;27.13;7.57;;;;;;;;;;6227703;23;20174;-88
2021/04/29 04:36:37;;;;;;;58.77;11.83;;;;;;;;;;6230765;23;20261;-89
2021/04/29 04:39:42;;;;;;;40.13;7.93;;;;;;;;;;6233906;22;20182;-90
2021/04/29 04:42:46;;;;;;;52.97;9.33;;;;;;;;;;6231891;23;20239;-92
2021/04/29 04:45:51;;;;;;;21.67;8.13;;;;;;;;;;6230105;22;20222;-89
2021/04/29 04:48:57;;;;;;;21.88;7.35;;;;;;;;;;6230729;22;20220;-90
2021/04/29 04:52:02;;;;;;;17.90;7.13;;;;;;;;;;6229396;23;20183;-90
2021/04/29 04:55:08;;;;;;;14.30;6.43;;;;;;;;;;6229489;22;20166;-89
2021/04/29 04:58:12;;;;;;;16.00;7.50;;;;;;;;;;6230318;23;20223;-91
2021/04/29 05:01:17;;;;;;;17.13;7.33;;;;;;;;;;6237022;23;20209;-90
2021/04/29 05:04:25;;;;;;;15.20;7.23;;;;;;;;;;6246976;23;20208;-91
2021/04/29 05:07:31;;;;;;;14.97;7.10;;;;;;;;;;6242970;23;20167;-90
2021/04/29 05:10:36;;;;;;;14.57;6.57;;;;;;;;;;6243130;23;20187;-92
2021/04/29 05:13:41;;;;;;;13.23;6.60;;;;;;;;;;6241782;23;20174;-91
2021/04/29 05:16:46;;;;;;;17.83;6.80;;;;;;;;;;6243049;23;20613;-90
2021/04/29 05:19:51;;;;;;;15.53;7.57;;;;;;;;;;6242682;23;20198;-91
2021/04/29 05:22:55;;;;;;;14.83;6.77;;;;;;;;;;6244774;22;20182;-91
2021/04/29 05:26:00;;;;;;;14.73;6.93;;;;;;;;;;6241001;23;20221;-93
2021/04/29 05:29:07;;;;;;;19.00;7.23;;;;;;;;;;6241758;22;20166;-91
2021/04/29 05:32:13;;;;;;;18.10;6.23;;;;;;;;;;6242123;23;20157;-89
2021/04/29 05:35:19;;;;;;;18.10;7.07;;;;;;;;;;6243517;23;20167;-90
2021/04/29 05:38:24;;;;;;;12.23;6.73;;;;;;;;;;6242269;23;20174;-92
2021/04/29 05:41:30;;;;;;;14.23;6.97;;;;;;;;;;6240653;23;20253;-90
2021/04/29 05:44:34;;;;;;;25.73;7.30;;;;;;;;;;6239906;23;20150;-92
2021/04/29 05:47:40;;;;;;;13.30;6.75;;;;;;;;;;6240085;23;20174;-90
2021/04/29 05:50:46;;;;;;;19.13;7.28;;;;;;;;;;6239607;23;20170;-90
2021/04/29 05:53:51;;;;;;;13.85;7.18;;;;;;;;;;6240875;23;20167;-91
2021/04/29 05:56:56;;;;;;;15.13;7.00;;;;;;;;;;6242321;23;20154;-90
2021/04/29 06:00:00;;;;;;;17.58;6.45;;;;;;;;;;6240701;23;20210;-91
2021/04/29 06:03:05;;;;;;;19.27;6.80;;;;;;;;;;6230218;23;20191;-90
2021/04/29 06:06:11;;;;;;;14.20;6.65;;;;;;;;;;6228366;23;20299;-89
2021/04/29 06:09:15;;;;;;;11.05;7.03;;;;;;;;;;6231390;22;20167;-90
2021/04/29 06:12:20;;;;;;;17.90;6.93;;;;;;;;;;6229527;23;20245;-90
2021/04/29 06:15:24;;;;;;;22.75;7.30;;;;;;;;;;6228228;23;20230;-91
2021/04/29 06:18:29;;;;;;;13.05;7.00;;;;;;;;;;6228904;23;20198;-90
2021/04/29 06:21:35;;;;;;;13.10;7.40;;;;;;;;;;6230916;22;20207;-90
2021/04/29 06:24:40;;;;;;;18.98;7.70;;;;;;;;;;6228477;23;20187;-91
2021/04/29 06:27:45;;;;;;;17.77;7.80;;;;;;;;;;6230354;22;20172;-91
2021/04/29 06:30:49;;;;;;;13.45;7.72;;;;;;;;;;6229071;22;20220;-91
2021/04/29 06:33:54;;;;;;;16.40;8.10;;;;;;;;;;6229610;23;20207;-92
2021/04/29 06:37:02;;;;;;;16.80;8.00;;;;;;;;;;6231448;22;20166;-89
2021/04/29 06:40:07;;;;;;;15.68;8.00;;;;;;;;;;6234407;23;20190;-92
2021/04/29 06:43:21;;;;;;;23.77;8.52;;;;;;;;;;6233606;22;20171;-92
2021/04/29 06:46:26;;;;;;;20.85;8.23;;;;;;;;;;6233856;23;20242;-92
2021/04/29 17:46:03;;;;;;;11.65;4.10;;;;;;;;;;6228584;22;20210;-89
2021/04/29 17:49:08;;;;;;;10.68;4.05;;;;;;;;;;6244099;22;20178;-91
2021/04/29 17:52:13;;;;;;;10.65;4.03;;;;;;;;;;6246661;23;20167;-93
2021/04/29 17:55:18;;;;;;;6.85;3.53;;;;;;;;;;6245404;23;20172;-91
2021/04/29 17:58:37;;;;;;;8.45;4.10;;;;;;;;;;6240964;23;20166;-90
2021/04/29 18:01:43;;;;;;;11.45;3.92;;;;;;;;;;6241372;23;20552;-91
2021/04/29 18:04:48;;;;;;;10.50;4.40;;;;;;;;;;6245439;23;20170;-91
2021/04/29 18:07:53;;;;;;;11.00;3.92;;;;;;;;;;6246563;23;20181;-92
2021/04/29 18:10:58;;;;;;;10.05;4.00;;;;;;;;;;6245558;23;20219;-92
2021/04/29 18:14:02;;;;;;;8.55;4.10;;;;;;;;;;6243311;23;20170;-89
2021/04/29 18:17:08;;;;;;;10.52;4.05;;;;;;;;;;6242555;23;20223;-88
2021/04/29 18:20:14;;;;;;;8.43;4.00;;;;;;;;;;6244809;23;20170;-90
2021/04/29 18:23:19;;;;;;;10.70;3.65;;;;;;;;;;6247132;23;20197;-92
2021/04/29 18:26:24;;;;;;;9.73;4.28;;;;;;;;;;6245135;23;20186;-90
2021/04/29 18:29:29;;;;;;;13.15;4.75;;;;;;;;;;6243963;23;20392;-90
2021/04/29 18:32:35;;;;;;;9.13;3.97;;;;;;;;;;6246201;23;20625;-90
2021/04/29 18:35:40;;;;;;;9.10;4.50;;;;;;;;;;6245436;23;20171;-90
2021/04/29 18:38:45;;;;;;;9.38;4.07;;;;;;;;;;6245993;23;20155;-90
2021/04/29 18:41:51;;;;;;;8.68;4.60;;;;;;;;;;6247486;23;20709;-90
2021/04/29 18:44:55;;;;;;;10.55;3.97;;;;;;;;;;6245844;23;20170;-92
2021/04/29 18:48:01;;;;;;;8.70;4.90;;;;;;;;;;6246969;23;20179;-90
2021/04/29 18:51:06;;;;;;;8.02;3.80;;;;;;;;;;6247136;23;20169;-91
2021/04/29 18:54:12;;;;;;;11.75;4.20;;;;;;;;;;6247781;23;20186;-91
2021/04/29 18:57:17;;;;;;;13.80;4.32;;;;;;;;;;6248000;23;20166;-91
2021/04/29 19:00:22;;;;;;;8.95;3.80;;;;;;;;;;6247847;23;20221;-92
2021/04/29 19:03:29;;;;;;;9.57;3.90;;;;;;;;;;6247121;23;20194;-90
2021/04/29 19:06:34;;;;;;;9.00;3.75;;;;;;;;;;6249365;23;20154;-91
2021/04/29 19:09:39;;;;;;;6.25;3.47;;;;;;;;;;6245490;23;20249;-93
2021/04/29 19:12:45;;;;;;;11.05;4.20;;;;;;;;;;6245021;23;20226;-91
2021/04/29 19:15:50;;;;;;;7.57;3.90;;;;;;;;;;6246167;23;20594;-90
2021/04/29 19:18:58;;;;;;;12.00;5.05;;;;;;;;;;6244369;23;20166;-90
2021/04/29 19:22:04;;;;;;;13.00;5.05;;;;;;;;;;6245015;23;20174;-91
2021/04/29 19:25:10;;;;;;;11.45;4.68;;;;;;;;;;6244954;22;20185;-90
2021/04/29 19:28:15;;;;;;;10.20;4.90;;;;;;;;;;6245327;23;20249;-91
2021/04/29 19:31:20;;;;;;;13.68;5.47;;;;;;;;;;6245281;23;20166;-90
2021/04/29 19:34:25;;;;;;;15.10;5.50;;;;;;;;;;6244857;23;20185;-89
2021/04/29 19:37:30;;;;;;;11.38;5.40;;;;;;;;;;6245743;22;20171;-92
2021/04/29 19:40:35;;;;;;;12.05;5.63;;;;;;;;;;6243565;23;20225;-92
2021/04/29 19:43:40;;;;;;;13.98;5.50;;;;;;;;;;6244440;23;20190;-90
2021/04/29 19:46:45;;;;;;;14.80;5.80;;;;;;;;;;6232182;23;20191;-92
2021/04/29 19:49:51;;;;;;;14.63;5.38;;;;;;;;;;6233384;23;20176;-91
2021/04/29 19:52:56;;;;;;;13.77;5.65;;;;;;;;;;6232180;23;20179;-90
2021/04/29 19:56:01;;;;;;;14.50;5.50;;;;;;;;;;6230836;23;20222;-93
2021/04/29 19:59:06;;;;;;;11.68;5.38;;;;;;;;;;6229265;23;20178;-91
2021/04/29 20:02:11;;;;;;;11.30;5.35;;;;;;;;;;6229129;23;20241;-89
2021/04/29 20:05:17;;;;;;;12.18;5.47;;;;;;;;;;6229151;23;20182;-88
2021/04/29 20:08:22;;;;;;;11.95;6.00;;;;;;;;;;6230535;23;20179;-90
2021/04/29 20:11:27;;;;;;;10.73;4.60;;;;;;;;;;6231506;23;20194;-90
2021/04/29 20:14:33;;;;;;;14.73;4.65;;;;;;;;;;6232302;23;20215;-92
2021/04/29 20:17:38;;;;;;;9.40;4.75;;;;;;;;;;6232293;22;20215;-91
2021/04/29 20:20:45;;;;;;;18.65;5.45;;;;;;;;;;6232128;23;20166;-90
2021/04/29 20:23:49;;;;;;;11.23;5.85;;;;;;;;;;6231452;23;20166;-89
2021/04/29 20:26:54;;;;;;;11.80;5.50;;;;;;;;;;6230285;23;20727;-91
2021/04/29 20:30:00;;;;;;;11.88;4.82;;;;;;;;;;6231306;23;20171;-91
2021/04/29 20:33:08;;;;;;;11.70;4.88;;;;;;;;;;6233849;22;20171;-90
2021/04/29 20:36:36;;;;;;;10.30;4.80;;;;;;;;;;6233407;23;20489;-90
2021/04/29 20:39:42;;;;;;;13.32;4.90;;;;;;;;;;6232370;23;20166;-91
2021/04/29 20:42:49;;;;;;;8.13;4.22;;;;;;;;;;6231878;23;20251;-92
2021/04/29 20:45:55;;;;;;;9.90;4.43;;;;;;;;;;6246677;22;20185;-91
2021/04/29 20:49:01;;;;;;;8.98;4.10;;;;;;;;;;6245764;23;20194;-90
2021/04/29 20:52:06;;;;;;;14.07;4.85;;;;;;;;;;6244130;23;20182;-88
2021/04/29 20:55:12;;;;;;;12.10;5.05;;;;;;;;;;6245050;23;20234;-91
2021/04/29 20:58:18;;;;;;;7.28;4.65;;;;;;;;;;6242834;23;20179;-90
2021/04/29 21:01:25;;;;;;;11.77;5.60;;;;;;;;;;6243837;23;20609;-90
2021/04/29 21:04:30;;;;;;;12.73;5.75;;;;;;;;;;6245833;22;20166;-90
2021/04/29 21:07:35;;;;;;;9.05;4.80;;;;;;;;;;6244285;23;20167;-89
2021/04/29 21:10:41;;;;;;;8.40;4.57;;;;;;;;;;6244938;23;20531;-90
2021/04/29 21:13:46;;;;;;;9.70;4.63;;;;;;;;;;6245794;23;20166;-92
2021/04/29 21:16:51;;;;;;;15.18;5.38;;;;;;;;;;6243232;23;20191;-90
2021/04/29 21:19:56;;;;;;;13.57;5.47;;;;;;;;;;6245615;23;20171;-90
2021/04/29 21:23:01;;;;;;;9.57;5.65;;;;;;;;;;6245815;23;20194;-88
2021/04/29 21:26:07;;;;;;;11.88;6.28;;;;;;;;;;6246903;23;20171;-92
2021/04/29 21:29:12;;;;;;;13.40;5.25;;;;;;;;;;6244850;23;20248;-90
2021/04/29 21:32:17;;;;;;;14.60;7.82;;;;;;;;;;6245185;23;20230;-91
2021/04/29 21:35:22;;;;;;;10.52;5.50;;;;;;;;;;6244907;23;20158;-91
2021/04/29 21:38:27;;;;;;;11.95;5.50;;;;;;;;;;6246644;23;20233;-90
2021/04/29 21:41:33;;;;;;;8.38;5.10;;;;;;;;;;6245489;23;20157;-92
2021/04/29 21:44:37;;;;;;;12.00;5.47;;;;;;;;;;6244452;23;20167;-89
2021/04/29 21:47:42;;;;;;;14.88;5.90;;;;;;;;;;6229875;23;20170;-91
2021/04/29 21:50:47;;;;;;;14.73;5.88;;;;;;;;;;6232046;22;20191;-88
2021/04/29 21:53:52;;;;;;;12.68;6.57;;;;;;;;;;6230376;23;20233;-90
2021/04/29 21:56:58;;;;;;;13.88;6.80;;;;;;;;;;6232003;23;20175;-91
2021/04/29 22:00:02;;;;;;;15.80;6.60;;;;;;;;;;6230293;23;20240;-89
2021/04/29 22:03:10;;;;;;;13.32;6.68;;;;;;;;;;6231848;23;20260;-89
2021/04/29 22:06:20;;;;;;;12.93;6.45;;;;;;;;;;6232301;23;20179;-88
2021/04/29 22:09:26;;;;;;;12.07;6.05;;;;;;;;;;6232493;23;20151;-89
2021/04/29 22:12:32;;;;;;;12.52;5.97;;;;;;;;;;6232456;23;20178;-89
2021/04/29 22:15:37;;;;;;;14.63;6.40;;;;;;;;;;6232534;23;20211;-91
2021/04/29 22:18:41;;;;;;;10.35;6.25;;;;;;;;;;6232216;23;20166;-91
2021/04/29 22:21:46;;;;;;;15.27;6.85;;;;;;;;;;6229494;23;20198;-90
2021/04/29 22:24:51;;;;;;;15.55;7.55;;;;;;;;;;6231129;23;20171;-89
2021/04/29 22:27:57;;;;;;;16.52;7.15;;;;;;;;;;6231300;23;20172;-92
2021/04/29 22:31:02;;;;;;;15.05;7.18;;;;;;;;;;6230962;23;20210;-91
2021/04/29 22:34:06;;;;;;;15.27;8.13;;;;;;;;;;6231527;23;20195;-91
2021/04/29 22:37:11;;;;;;;13.18;7.40;;;;;;;;;;6230203;23;20496;-92
2021/04/29 22:40:16;;;;;;;13.57;7.53;;;;;;;;;;6229075;23;20191;-92
2021/04/29 22:43:23;;;;;;;15.38;7.47;;;;;;;;;;6231202;23;20261;-90
2021/04/29 22:46:33;;;;;;;17.27;7.40;;;;;;;;;;6230580;23;20214;-91
2021/04/29 22:49:37;;;;;;;14.88;7.50;;;;;;;;;;6229838;22;20171;-91
2021/04/29 22:52:43;;;;;;;13.35;7.07;;;;;;;;;;6227895;22;20167;-90
2021/04/29 22:55:48;;;;;;;15.30;7.63;;;;;;;;;;6228737;23;20170;-90
2021/04/29 22:58:54;;;;;;;11.05;7.13;;;;;;;;;;6227472;23;20151;-90
2021/04/29 23:01:59;;;;;;;14.85;8.30;;;;;;;;;;6229090;23;20191;-91
2021/04/29 23:05:04;;;;;;;15.27;8.50;;;;;;;;;;6228495;23;20171;-90
2021/04/29 23:08:09;;;;;;;14.45;8.02;;;;;;;;;;6227448;23;20227;-90
2021/04/29 23:11:13;;;;;;;13.23;8.00;;;;;;;;;;6227074;23;20203;-88
2021/04/29 23:14:19;;;;;;;18.88;8.60;;;;;;;;;;6228460;22;20187;-90
2021/04/29 23:17:24;;;;;;;14.88;8.15;;;;;;;;;;6228449;23;20175;-91
2021/04/29 23:20:29;;;;;;;17.02;8.70;;;;;;;;;;6226802;23;20254;-90
2021/04/29 23:23:33;;;;;;;18.13;8.55;;;;;;;;;;6227313;23;20215;-90
2021/04/29 23:26:38;;;;;;;17.85;8.98;;;;;;;;;;6227247;23;20274;-89
2021/04/29 23:29:43;;;;;;;19.52;9.77;;;;;;;;;;6225823;23;20171;-91
2021/04/29 23:32:49;;;;;;;13.82;8.20;;;;;;;;;;6225726;23;20528;-89
2021/04/29 23:35:54;;;;;;;14.88;7.55;;;;;;;;;;6227389;23;20346;-90
2021/04/29 23:38:58;;;;;;;18.20;8.25;;;;;;;;;;6227706;23;20217;-91
2021/04/29 23:42:03;;;;;;;16.23;7.95;;;;;;;;;;6224735;23;20190;-92
2021/04/29 23:45:08;;;;;;;15.63;8.93;;;;;;;;;;6228174;23;20166;-89
2021/04/29 23:48:13;;;;;;;20.58;8.68;;;;;;;;;;6238470;23;20550;-89
2021/04/29 23:51:18;;;;;;;15.63;9.00;;;;;;;;;;6238583;23;20167;-88
2021/04/29 23:54:23;;;;;;;13.40;8.15;;;;;;;;;;6238223;23;20186;-91
2021/04/29 23:57:27;;;;;;;12.40;7.72;;;;;;;;;;6238856;23;20231;-90
